createdAt,value
2019-01-10T00:03:38.966Z,62
2019-01-10T00:13:42.404Z,61.4
2019-01-10T00:23:45.809Z,60.9
2019-01-10T00:33:49.211Z,61
2019-01-10T00:43:52.649Z,60.4
2019-01-10T00:53:56.072Z,61.4
2019-01-10T01:03:59.493Z,62.2
2019-01-10T01:14:02.899Z,62.1
2019-01-10T01:24:06.353Z,62.4
2019-01-10T01:34:09.774Z,63
2019-01-10T01:44:13.166Z,63.2
2019-01-10T01:54:16.592Z,62.7
2019-01-10T02:04:19.992Z,63.2
2019-01-10T02:14:23.389Z,62.9
2019-01-10T02:24:26.796Z,62.6
2019-01-10T02:34:30.232Z,63
2019-01-10T02:44:33.631Z,63.5
2019-01-10T02:54:37.067Z,64.2
2019-01-10T03:04:40.479Z,64.2
2019-01-10T03:14:43.902Z,64.3
2019-01-10T03:24:47.338Z,64
2019-01-10T03:34:50.869Z,64.2
2019-01-10T03:44:54.297Z,64
2019-01-10T03:54:57.705Z,63.8
2019-01-10T04:05:01.235Z,64.6
2019-01-10T04:15:04.758Z,64.7
2019-01-10T04:25:08.212Z,64.4
2019-01-10T04:35:11.667Z,64.1
2019-01-10T04:45:15.071Z,64
2019-01-10T04:55:18.493Z,64.1
2019-01-10T05:05:21.951Z,64
2019-01-10T05:15:25.413Z,64.5
2019-01-10T05:25:28.836Z,64.1
2019-01-10T05:35:32.273Z,64.4
2019-01-10T05:45:35.712Z,64.2
2019-01-10T05:55:39.106Z,65
2019-01-10T06:05:42.501Z,65.1
2019-01-10T06:15:45.903Z,66
2019-01-10T06:25:49.341Z,66.3
2019-01-10T06:35:52.781Z,66.6
2019-01-10T06:45:56.234Z,66.8
2019-01-10T06:55:59.680Z,67.2
2019-01-10T07:06:03.135Z,68.2
2019-01-10T07:16:06.548Z,68.2
2019-01-10T07:26:09.992Z,68.5
2019-01-10T07:36:13.407Z,68.5
2019-01-10T07:46:16.944Z,68.9
2019-01-10T07:56:20.393Z,68.6
2019-01-10T08:06:23.834Z,69
2019-01-10T08:16:27.254Z,69.6
2019-01-10T08:26:30.715Z,69.8
2019-01-10T08:36:34.132Z,70.1
2019-01-10T08:46:37.546Z,69.5
2019-01-10T08:56:40.959Z,69.9
2019-01-10T09:06:44.367Z,69.9
2019-01-10T09:16:47.794Z,70.4
2019-01-10T09:26:51.199Z,70.3
2019-01-10T09:36:54.621Z,70.1
2019-01-10T09:46:58.045Z,70.2
2019-01-10T09:57:01.478Z,70.5
2019-01-10T10:07:04.931Z,70.6
2019-01-10T10:17:08.425Z,70.5
2019-01-10T10:27:11.841Z,70.8
2019-01-10T10:37:15.274Z,70.4
2019-01-10T10:47:18.648Z,70.9
2019-01-10T10:57:23.064Z,70.5
2019-01-10T11:07:26.511Z,70.6
2019-01-10T11:17:29.947Z,71.2
2019-01-10T11:27:33.347Z,71.4
2019-01-10T11:37:36.824Z,71.4
2019-01-10T11:47:40.234Z,71
2019-01-10T11:57:43.653Z,71.1
2019-01-10T12:07:47.101Z,71.7
2019-01-10T12:17:50.543Z,72.3
2019-01-10T12:27:53.956Z,72
2019-01-10T12:37:57.376Z,72
2019-01-10T12:48:01.846Z,71.8
2019-01-10T12:58:05.253Z,71.8
2019-01-10T13:08:08.673Z,72.4
2019-01-10T13:18:12.081Z,72.5
2019-01-10T13:28:15.525Z,72
2019-01-10T13:38:18.928Z,72.7
2019-01-10T13:48:22.424Z,71.6
2019-01-10T13:58:25.847Z,70
2019-01-10T14:08:29.290Z,68.4
2019-01-10T14:18:32.695Z,68.5
2019-01-10T14:28:36.088Z,66.6
2019-01-10T14:38:39.502Z,68.9
2019-01-10T14:48:42.865Z,68.1
2019-01-10T14:58:46.258Z,67.6
2019-01-10T15:08:49.661Z,67
2019-01-10T15:18:53.128Z,67.7
2019-01-10T15:28:56.526Z,66.9
2019-01-10T15:38:59.952Z,67.2
2019-01-10T15:49:03.373Z,66.4
2019-01-10T15:59:06.813Z,66
2019-01-10T16:09:10.241Z,65.6
2019-01-10T16:19:13.693Z,65.3
2019-01-10T16:29:17.132Z,65.4
2019-01-10T16:39:20.568Z,65.7
2019-01-10T16:49:24.011Z,64.7
2019-01-10T17:09:35.581Z,63.4
2019-01-10T17:19:38.982Z,63.4
2019-01-10T17:29:42.402Z,62.2
2019-01-10T17:39:45.838Z,62.6
2019-01-10T17:49:49.234Z,62.5
2019-01-10T17:59:52.635Z,62.8
2019-01-10T18:09:56.021Z,63
2019-01-10T18:19:59.423Z,62.8
2019-01-10T18:30:02.834Z,63.5
2019-01-10T18:40:06.250Z,63.6
2019-01-10T18:50:09.668Z,63.6
2019-01-10T19:00:13.106Z,63.9
2019-01-10T19:10:16.515Z,63.8
2019-01-10T19:20:19.923Z,63.1
2019-01-10T19:30:23.338Z,63
2019-01-10T19:40:26.757Z,63.3
2019-01-10T19:50:30.206Z,63.2
2019-01-10T20:00:33.620Z,63.2
2019-01-10T20:10:37.065Z,62.8
2019-01-10T20:20:40.482Z,61.5
2019-01-10T20:30:43.924Z,61.6
2019-01-10T20:40:47.337Z,61.6
2019-01-10T20:50:51.945Z,61.4
2019-01-10T21:00:55.375Z,60.1
2019-01-10T21:10:58.795Z,59.2
2019-01-10T21:21:02.225Z,59.9
2019-01-10T21:31:05.620Z,60.1
2019-01-10T21:41:09.022Z,58.8
2019-01-10T21:51:12.479Z,59
2019-01-10T22:01:15.930Z,59.9
2019-01-10T22:11:19.380Z,60.4
2019-01-10T22:21:22.762Z,59.3
2019-01-10T22:31:26.198Z,59.3
2019-01-10T22:41:29.620Z,60.1
2019-01-10T22:51:33.055Z,60.3
2019-01-10T23:01:36.603Z,59.6
2019-01-10T23:11:40.180Z,59.9
2019-01-10T23:21:43.601Z,59.9
2019-01-10T23:31:47.023Z,59.6
2019-01-10T23:41:50.435Z,60
2019-01-10T23:51:53.884Z,60.7
